createdAt,value
2019-02-05T00:01:54.163Z,12.82
2019-02-05T00:04:23.263Z,8.68
2019-02-05T00:06:52.182Z,8.93
2019-02-05T00:09:21.036Z,7.80
2019-02-05T00:11:50.247Z,13.15
2019-02-05T00:14:19.017Z,21.10
2019-02-05T00:16:47.919Z,11.55
2019-02-05T00:19:17.063Z,10.15
2019-02-05T00:21:45.911Z,11.97
2019-02-05T00:24:14.822Z,8.65
2019-02-05T00:26:43.915Z,8.48
2019-02-05T00:29:12.789Z,8.93
2019-02-05T00:31:41.687Z,9.33
2019-02-05T00:34:10.471Z,8.18
2019-02-05T00:36:39.351Z,11.20
2019-02-05T00:39:09.061Z,11.60
2019-02-05T00:41:38.072Z,7.90
2019-02-05T00:44:07.006Z,12.73
2019-02-05T00:46:35.891Z,7.62
2019-02-05T00:49:05.141Z,10.32
2019-02-05T00:51:34.029Z,13.80
2019-02-05T00:54:02.961Z,9.05
2019-02-05T00:56:32.051Z,9.53
2019-02-05T00:59:00.915Z,15.65
2019-02-05T01:01:30.146Z,9.60
2019-02-05T01:03:59.069Z,11.33
2019-02-05T01:06:27.880Z,10.18
2019-02-05T01:08:56.827Z,12.47
2019-02-05T01:11:25.657Z,8.75
2019-02-05T01:13:54.449Z,9.93
2019-02-05T01:16:23.645Z,9.08
2019-02-05T01:18:52.439Z,9.85
2019-02-05T01:21:21.389Z,9.65
2019-02-05T01:23:50.421Z,7.55
2019-02-05T01:26:28.912Z,8.08
2019-02-05T01:28:50.089Z,8.55
2019-02-05T01:31:19.209Z,8.25
2019-02-05T01:33:48.031Z,11.28
2019-02-05T01:36:16.797Z,8.13
2019-02-05T01:38:45.743Z,8.93
2019-02-05T01:41:14.637Z,7.37
2019-02-05T01:43:43.459Z,9.95
2019-02-05T01:46:12.712Z,12.65
2019-02-05T01:48:41.475Z,11.85
2019-02-05T01:51:10.275Z,7.80
2019-02-05T01:53:39.072Z,15.10
2019-02-05T01:56:08.002Z,8.98
2019-02-05T01:58:37.051Z,10.30
2019-02-05T02:01:06.619Z,8.95
2019-02-05T02:03:35.491Z,7.35
2019-02-05T02:06:04.469Z,10.13
2019-02-05T02:08:33.463Z,6.70
2019-02-05T02:11:02.215Z,12.58
2019-02-05T02:13:31.036Z,9.28
2019-02-05T02:16:00.420Z,10.00
2019-02-05T02:18:29.281Z,15.28
2019-02-05T02:20:58.615Z,12.65
2019-02-05T02:23:27.490Z,8.85
2019-02-05T02:25:56.522Z,8.38
2019-02-05T02:28:25.479Z,7.83
2019-02-05T02:30:54.368Z,10.85
2019-02-05T02:33:23.295Z,6.65
2019-02-05T02:35:52.288Z,7.90
2019-02-05T02:38:21.144Z,11.38
2019-02-05T02:40:49.997Z,9.03
2019-02-05T02:43:18.781Z,10.25
2019-02-05T02:45:47.726Z,5.08
2019-02-05T02:48:16.616Z,4.50
2019-02-05T02:50:45.536Z,6.60
2019-02-05T02:53:14.420Z,6.25
2019-02-05T02:55:43.263Z,12.95
2019-02-05T02:58:13.629Z,6.97
2019-02-05T03:00:42.697Z,7.22
2019-02-05T03:03:11.854Z,10.00
2019-02-05T03:05:40.750Z,6.60
2019-02-05T03:08:09.701Z,8.10
2019-02-05T03:10:38.762Z,6.85
2019-02-05T03:13:07.765Z,12.30
2019-02-05T03:15:37.057Z,6.17
2019-02-05T03:18:06.036Z,7.95
2019-02-05T03:20:35.163Z,6.15
2019-02-05T03:23:04.170Z,5.50
2019-02-05T03:25:33.145Z,6.22
2019-02-05T03:28:02.111Z,8.33
2019-02-05T03:30:31.104Z,5.95
2019-02-05T03:33:00.090Z,5.62
2019-02-05T03:35:30.350Z,5.65
2019-02-05T03:37:59.473Z,10.93
2019-02-05T03:41:07.585Z,7.22
2019-02-05T03:43:40.656Z,6.17
2019-02-05T03:46:13.984Z,9.15
2019-02-05T03:48:43.932Z,8.23
2019-02-05T03:51:34.584Z,4.42
2019-02-05T03:54:22.077Z,6.08
2019-02-05T03:57:12.515Z,8.93
2019-02-05T04:00:05.474Z,6.55
2019-02-05T04:03:01.358Z,9.90
2019-02-05T04:06:03.669Z,5.75
2019-02-05T04:09:14.226Z,8.63
2019-02-05T04:12:23.599Z,4.42
2019-02-05T04:15:27.916Z,6.00
2019-02-05T04:18:32.697Z,8.38
2019-02-05T04:21:40.198Z,8.28
2019-02-05T04:24:31.414Z,8.05
2019-02-05T04:27:45.221Z,8.75
2019-02-05T04:30:26.110Z,8.78
2019-02-05T04:33:27.059Z,4.70
2019-02-05T04:36:20.418Z,9.73
2019-02-05T04:39:19.515Z,6.35
2019-02-05T04:42:22.881Z,10.55
2019-02-05T04:45:08.040Z,5.40
2019-02-05T04:48:28.758Z,9.95
2019-02-05T04:51:16.677Z,9.78
2019-02-05T04:54:01.741Z,7.92
2019-02-05T04:56:46.016Z,6.80
2019-02-05T04:59:23.859Z,8.20
2019-02-05T05:02:38.848Z,7.60
2019-02-05T05:05:34.692Z,8.18
2019-02-05T05:08:43.703Z,8.78
2019-02-05T05:11:12.836Z,9.40
2019-02-05T05:13:41.731Z,15.20
2019-02-05T05:16:10.689Z,10.78
2019-02-05T05:18:39.493Z,10.65
2019-02-05T05:21:08.478Z,8.60
2019-02-05T05:23:37.490Z,10.18
2019-02-05T05:26:06.488Z,7.83
2019-02-05T05:28:37.153Z,9.03
2019-02-05T05:31:06.118Z,11.65
2019-02-05T05:33:34.956Z,7.22
2019-02-05T05:36:04.063Z,8.30
2019-02-05T05:38:32.946Z,10.63
2019-02-05T05:41:01.863Z,7.90
2019-02-05T05:43:30.662Z,10.13
2019-02-05T05:45:59.588Z,9.05
2019-02-05T05:48:28.474Z,7.90
2019-02-05T05:50:57.402Z,7.25
2019-02-05T05:53:26.201Z,8.30
2019-02-05T05:55:55.168Z,6.95
2019-02-05T05:58:24.043Z,6.75
2019-02-05T06:00:53.278Z,8.05
2019-02-05T06:03:22.132Z,10.15
2019-02-05T06:05:51.018Z,9.35
2019-02-05T06:08:19.982Z,6.45
2019-02-05T06:10:49.001Z,9.25
2019-02-05T06:13:17.998Z,8.73
2019-02-05T06:15:46.815Z,7.97
2019-02-05T06:18:16.025Z,7.87
2019-02-05T06:20:45.152Z,10.72
2019-02-05T06:23:14.117Z,11.35
2019-02-05T06:25:43.069Z,9.45
2019-02-05T06:28:13.299Z,11.15
2019-02-05T06:30:42.280Z,9.10
2019-02-05T06:33:11.284Z,10.08
2019-02-05T06:35:40.121Z,7.45
2019-02-05T06:38:09.064Z,10.30
2019-02-05T06:40:37.951Z,8.78
2019-02-05T06:43:06.912Z,11.53
2019-02-05T06:45:35.719Z,7.17
2019-02-05T06:48:04.744Z,7.67
2019-02-05T06:50:33.885Z,9.75
2019-02-05T06:53:02.940Z,8.83
2019-02-05T06:55:32.020Z,10.00
2019-02-05T06:58:00.974Z,14.05
2019-02-05T07:00:29.850Z,8.08
2019-02-05T07:02:58.842Z,11.45
2019-02-05T07:05:28.051Z,9.13
2019-02-05T07:07:57.396Z,13.18
2019-02-05T07:10:26.323Z,12.25
2019-02-05T07:12:55.276Z,7.72
2019-02-05T07:15:24.119Z,8.55
2019-02-05T07:17:53.029Z,12.45
2019-02-05T07:20:22.291Z,8.53
2019-02-05T07:22:51.619Z,8.38
2019-02-05T07:25:20.553Z,12.07
2019-02-05T07:27:49.680Z,10.53
2019-02-05T07:30:20.827Z,17.80
2019-02-05T07:32:49.835Z,17.95
2019-02-05T07:35:18.814Z,10.98
2019-02-05T07:37:48.143Z,9.98
2019-02-05T07:40:18.346Z,13.55
2019-02-05T07:42:47.412Z,11.48
2019-02-05T07:45:17.838Z,10.05
2019-02-05T07:47:46.909Z,12.50
2019-02-05T07:50:18.185Z,7.78
2019-02-05T07:52:47.106Z,8.68
2019-02-05T07:55:16.098Z,6.97
2019-02-05T07:57:45.223Z,11.18
2019-02-05T08:00:19.441Z,9.70
2019-02-05T08:02:48.734Z,14.07
2019-02-05T08:05:19.751Z,10.38
2019-02-05T08:07:49.585Z,12.10
2019-02-05T08:10:20.250Z,11.20
2019-02-05T08:12:49.719Z,13.00
2019-02-05T08:15:22.499Z,12.65
2019-02-05T08:17:51.388Z,8.63
2019-02-05T08:20:20.383Z,12.10
2019-02-05T08:22:49.196Z,12.98
2019-02-05T08:25:18.127Z,11.38
2019-02-05T08:27:47.117Z,10.05
2019-02-05T08:30:24.000Z,10.55
2019-02-05T08:32:52.931Z,10.58
2019-02-05T08:35:21.888Z,13.25
2019-02-05T08:37:50.826Z,9.43
2019-02-05T08:40:20.288Z,8.38
2019-02-05T08:42:49.577Z,15.13
2019-02-05T08:45:20.445Z,10.13
2019-02-05T08:47:49.418Z,11.33
2019-02-05T08:50:23.054Z,9.15
2019-02-05T08:52:52.073Z,11.63
2019-02-05T08:55:21.235Z,11.43
2019-02-05T08:57:50.899Z,9.20
2019-02-05T09:00:22.168Z,13.10
2019-02-05T09:02:51.117Z,19.17
2019-02-05T09:05:20.155Z,12.90
2019-02-05T09:07:49.042Z,11.15
2019-02-05T09:10:20.733Z,12.53
2019-02-05T09:12:49.721Z,11.03
2019-02-05T09:15:29.106Z,13.38
2019-02-05T09:17:49.537Z,11.22
2019-02-05T09:20:18.761Z,9.38
2019-02-05T09:22:47.948Z,11.80
2019-02-05T09:25:17.122Z,13.62
2019-02-05T09:27:46.062Z,12.10
2019-02-05T09:30:17.586Z,11.90
2019-02-05T09:32:46.829Z,12.30
2019-02-05T09:35:36.517Z,11.75
2019-02-05T09:38:05.671Z,11.50
2019-02-05T09:40:35.323Z,11.35
2019-02-05T09:43:04.758Z,12.53
2019-02-05T09:45:34.242Z,13.88
2019-02-05T09:48:03.333Z,11.83
2019-02-05T09:50:43.760Z,10.75
2019-02-05T09:53:02.876Z,13.43
2019-02-05T09:55:31.891Z,13.80
2019-02-05T09:58:00.893Z,14.70
2019-02-05T10:00:33.203Z,13.13
2019-02-05T10:03:02.189Z,14.68
2019-02-05T10:05:31.991Z,12.90
2019-02-05T10:08:01.434Z,19.32
2019-02-05T10:10:30.568Z,15.83
2019-02-05T10:12:59.529Z,14.18
2019-02-05T10:15:33.276Z,14.85
2019-02-05T10:18:02.646Z,13.00
2019-02-05T10:20:31.645Z,14.50
2019-02-05T10:23:03.279Z,17.25
2019-02-05T10:25:32.303Z,21.37
2019-02-05T10:28:01.349Z,16.70
2019-02-05T10:30:32.229Z,16.57
2019-02-05T10:33:03.281Z,12.85
2019-02-05T10:35:32.289Z,15.30
2019-02-05T10:38:01.423Z,17.70
2019-02-05T10:40:30.604Z,13.00
2019-02-05T10:42:59.718Z,17.05
2019-02-05T10:45:28.687Z,19.23
2019-02-05T10:47:57.711Z,12.07
2019-02-05T10:50:26.843Z,14.93
2019-02-05T10:52:55.837Z,15.90
2019-02-05T10:55:24.751Z,12.93
2019-02-05T10:57:53.844Z,14.03
2019-02-05T11:00:27.582Z,13.22
2019-02-05T11:02:57.964Z,17.05
2019-02-05T11:05:28.375Z,17.82
2019-02-05T11:07:57.392Z,19.23
2019-02-05T11:10:26.850Z,17.07
2019-02-05T11:12:59.349Z,16.60
2019-02-05T11:15:30.152Z,15.38
2019-02-05T11:18:01.182Z,13.00
2019-02-05T11:20:30.478Z,17.57
2019-02-05T11:22:59.954Z,14.30
2019-02-05T11:25:28.956Z,15.93
2019-02-05T11:27:58.001Z,16.00
2019-02-05T11:30:32.233Z,13.78
2019-02-05T11:33:19.718Z,18.02
2019-02-05T11:35:51.922Z,19.00
2019-02-05T11:38:20.769Z,14.60
2019-02-05T11:40:49.749Z,19.23
2019-02-05T11:43:19.823Z,15.70
2019-02-05T11:45:48.837Z,12.63
2019-02-05T11:48:20.858Z,14.30
2019-02-05T11:50:49.956Z,13.65
2019-02-05T11:53:33.504Z,21.33
2019-02-05T11:56:02.361Z,13.65
2019-02-05T11:58:31.616Z,23.75
2019-02-05T12:01:14.054Z,13.88
2019-02-05T12:03:42.929Z,16.37
2019-02-05T12:06:11.985Z,15.88
2019-02-05T12:08:40.946Z,18.45
2019-02-05T12:11:12.584Z,20.08
2019-02-05T12:13:42.385Z,15.43
2019-02-05T12:16:11.933Z,13.48
2019-02-05T12:18:40.823Z,17.50
2019-02-05T12:21:10.202Z,15.00
2019-02-05T12:23:39.225Z,15.33
2019-02-05T12:26:08.143Z,15.68
2019-02-05T12:28:37.045Z,17.23
2019-02-05T12:31:06.273Z,15.20
2019-02-05T12:33:35.463Z,14.40
2019-02-05T12:36:04.572Z,21.20
2019-02-05T12:38:33.575Z,16.27
2019-02-05T12:41:02.481Z,17.02
2019-02-05T12:43:34.941Z,16.23
2019-02-05T12:46:04.048Z,21.90
2019-02-05T12:48:33.305Z,16.85
2019-02-05T12:51:14.345Z,14.63
2019-02-05T12:53:43.616Z,19.73
2019-02-05T12:56:12.559Z,22.50
2019-02-05T12:58:41.521Z,18.05
2019-02-05T13:01:10.679Z,15.63
2019-02-05T13:03:40.446Z,17.52
2019-02-05T13:06:13.235Z,16.02
2019-02-05T13:08:42.392Z,16.90
2019-02-05T13:11:11.289Z,15.88
2019-02-05T13:13:40.198Z,24.13
2019-02-05T13:16:09.100Z,11.83
2019-02-05T13:18:37.996Z,23.23
2019-02-05T13:21:10.878Z,18.87
2019-02-05T13:23:39.769Z,15.08
2019-02-05T13:26:09.143Z,18.53
2019-02-05T13:28:50.812Z,16.15
2019-02-05T13:31:20.057Z,17.70
2019-02-05T13:33:50.283Z,18.97
2019-02-05T13:36:19.197Z,23.20
2019-02-05T13:38:48.101Z,20.57
2019-02-05T13:41:17.172Z,20.68
2019-02-05T13:43:46.153Z,19.37
2019-02-05T13:46:15.075Z,24.00
2019-02-05T13:48:43.939Z,24.15
2019-02-05T13:51:12.944Z,32.80
2019-02-05T13:53:42.056Z,31.40
2019-02-05T13:56:11.376Z,18.60
2019-02-05T13:58:40.281Z,21.87
2019-02-05T14:01:19.534Z,21.55
2019-02-05T14:03:39.869Z,16.17
2019-02-05T14:06:08.824Z,19.02
2019-02-05T14:08:37.686Z,18.32
2019-02-05T14:11:06.545Z,19.77
2019-02-05T14:13:35.461Z,20.43
2019-02-05T14:16:05.219Z,13.65
2019-02-05T14:18:34.149Z,20.10
2019-02-05T14:21:03.138Z,20.70
2019-02-05T14:23:31.904Z,19.12
2019-02-05T14:26:00.793Z,20.53
2019-02-05T14:28:29.817Z,18.80
2019-02-05T14:30:59.017Z,17.73
2019-02-05T14:33:29.911Z,18.48
2019-02-05T14:35:58.811Z,19.45
2019-02-05T14:38:27.823Z,23.75
2019-02-05T14:40:56.937Z,17.10
2019-02-05T14:43:26.135Z,18.05
2019-02-05T14:45:55.018Z,19.27
2019-02-05T14:48:23.895Z,14.45
2019-02-05T14:50:53.173Z,19.73
2019-02-05T14:53:22.184Z,19.67
2019-02-05T14:55:51.140Z,19.48
2019-02-05T14:58:20.597Z,27.10
2019-02-05T15:00:49.483Z,26.17
2019-02-05T15:03:18.675Z,20.67
2019-02-05T15:05:48.054Z,19.20
2019-02-05T15:08:18.045Z,25.50
2019-02-05T15:10:49.331Z,21.40
2019-02-05T15:13:18.616Z,19.63
2019-02-05T15:15:47.683Z,16.73
2019-02-05T15:18:21.679Z,17.12
2019-02-05T15:20:51.256Z,18.53
2019-02-05T15:23:21.866Z,19.30
2019-02-05T15:25:51.446Z,15.38
2019-02-05T15:28:42.801Z,19.03
2019-02-05T15:31:11.575Z,22.42
2019-02-05T15:34:05.717Z,17.33
2019-02-05T15:36:41.201Z,17.30
2019-02-05T15:39:14.454Z,19.43
2019-02-05T15:41:43.465Z,19.75
2019-02-05T15:44:13.122Z,24.12
2019-02-05T15:46:41.923Z,19.45
2019-02-05T15:49:12.053Z,18.57
2019-02-05T15:51:41.697Z,16.40
2019-02-05T15:54:10.578Z,20.80
2019-02-05T15:56:39.759Z,21.97
2019-02-05T15:59:31.458Z,17.70
2019-02-05T16:02:06.545Z,17.65
2019-02-05T16:04:31.749Z,19.25
2019-02-05T16:07:01.127Z,16.70
2019-02-05T16:09:34.327Z,18.50
2019-02-05T16:12:03.204Z,19.42
2019-02-05T16:14:32.746Z,18.20
2019-02-05T16:17:03.921Z,16.30
2019-02-05T16:19:37.332Z,25.25
2019-02-05T16:22:16.043Z,20.17
2019-02-05T16:24:45.216Z,17.92
2019-02-05T16:27:14.474Z,19.17
2019-02-05T16:30:07.700Z,19.87
2019-02-05T16:32:36.904Z,16.93
2019-02-05T16:35:07.988Z,20.15
2019-02-05T16:37:55.959Z,19.73
2019-02-05T16:40:26.694Z,16.45
2019-02-05T16:42:56.074Z,18.05
2019-02-05T16:45:50.741Z,16.60
2019-02-05T16:48:20.145Z,16.95
2019-02-05T16:51:10.677Z,16.37
2019-02-05T16:53:39.673Z,20.00
2019-02-05T16:56:08.697Z,24.72
2019-02-05T16:58:40.677Z,16.60
2019-02-05T17:01:09.595Z,20.05
2019-02-05T17:03:38.721Z,17.55
2019-02-05T17:06:07.945Z,17.95
2019-02-05T17:08:36.941Z,22.20
2019-02-05T17:11:05.980Z,20.17
2019-02-05T17:13:34.849Z,19.05
2019-02-05T17:16:06.389Z,22.17
2019-02-05T17:18:35.478Z,20.00
2019-02-05T17:21:08.218Z,17.67
2019-02-05T17:23:37.166Z,22.50
2019-02-05T17:26:09.015Z,30.87
2019-02-05T17:28:38.267Z,21.87
2019-02-05T17:31:17.129Z,16.40
2019-02-05T17:34:15.097Z,20.62
2019-02-05T17:36:44.032Z,15.63
2019-02-05T17:39:13.833Z,19.53
2019-02-05T17:41:42.834Z,21.10
2019-02-05T17:44:15.747Z,17.05
2019-02-05T17:46:44.737Z,22.87
2019-02-05T17:49:13.715Z,18.82
2019-02-05T17:51:42.756Z,16.12
2019-02-05T17:54:11.870Z,15.95
2019-02-05T17:56:42.334Z,16.20
2019-02-05T17:59:11.304Z,17.57
2019-02-05T18:01:41.554Z,18.77
2019-02-05T18:04:10.603Z,18.02
2019-02-05T18:06:40.155Z,16.60
2019-02-05T18:09:09.688Z,12.73
2019-02-05T18:11:38.859Z,16.85
2019-02-05T18:14:10.751Z,16.90
2019-02-05T18:16:39.728Z,15.78
2019-02-05T18:19:11.785Z,18.42
2019-02-05T18:21:41.540Z,21.95
2019-02-05T18:24:12.885Z,16.45
2019-02-05T18:26:45.696Z,18.40
2019-02-05T18:29:28.810Z,18.17
2019-02-05T18:31:57.694Z,17.32
2019-02-05T18:34:27.572Z,21.95
2019-02-05T18:37:02.983Z,19.42
2019-02-05T18:39:32.045Z,18.50
2019-02-05T18:42:03.825Z,17.67
2019-02-05T18:44:36.579Z,18.57
2019-02-05T18:47:05.490Z,19.70
2019-02-05T18:49:34.617Z,21.00
2019-02-05T18:52:03.585Z,19.90
2019-02-05T18:54:34.397Z,22.20
2019-02-05T18:57:03.460Z,24.27
2019-02-05T18:59:32.653Z,21.12
2019-02-05T19:02:01.956Z,25.32
2019-02-05T19:04:34.177Z,28.02
2019-02-05T19:07:03.990Z,18.40
2019-02-05T19:09:33.159Z,17.17
2019-02-05T19:12:04.965Z,25.45
2019-02-05T19:14:33.472Z,19.15
2019-02-05T19:17:02.543Z,20.75
2019-02-05T19:19:34.264Z,19.07
2019-02-05T19:22:02.224Z,19.98
2019-02-05T19:24:56.366Z,21.90
2019-02-05T19:27:25.674Z,18.67
2019-02-05T19:29:54.786Z,21.27
2019-02-05T19:32:27.958Z,19.57
2019-02-05T19:34:57.440Z,14.75
2019-02-05T19:37:26.482Z,21.57
2019-02-05T19:39:55.900Z,20.40
2019-02-05T19:42:26.175Z,15.68
2019-02-05T19:45:05.390Z,19.05
2019-02-05T19:47:34.719Z,28.27
2019-02-05T19:50:04.333Z,25.40
2019-02-05T19:52:33.474Z,28.30
2019-02-05T19:55:02.530Z,27.55
2019-02-05T19:57:31.727Z,21.05
2019-02-05T20:00:01.256Z,19.87
2019-02-05T20:02:30.521Z,22.10
2019-02-05T20:05:01.606Z,19.92
2019-02-05T20:07:30.626Z,21.37
2019-02-05T20:09:59.917Z,26.10
2019-02-05T20:12:29.543Z,23.87
2019-02-05T20:15:00.860Z,25.95
2019-02-05T20:17:30.604Z,26.57
2019-02-05T20:20:00.120Z,20.55
2019-02-05T20:22:29.285Z,21.00
2019-02-05T20:24:58.364Z,20.35
2019-02-05T20:27:27.875Z,23.25
2019-02-05T20:29:58.170Z,22.07
2019-02-05T20:32:28.295Z,17.45
2019-02-05T20:34:57.312Z,20.88
2019-02-05T20:37:26.419Z,17.02
2019-02-05T20:39:55.509Z,24.00
2019-02-05T20:42:25.182Z,25.00
2019-02-05T20:44:54.224Z,18.35
2019-02-05T20:47:23.549Z,25.30
2019-02-05T20:49:52.642Z,23.95
2019-02-05T20:52:21.626Z,26.80
2019-02-05T20:54:51.931Z,29.87
2019-02-05T20:57:20.902Z,30.48
2019-02-05T20:59:51.072Z,26.82
2019-02-05T21:02:20.548Z,21.33
2019-02-05T21:04:50.471Z,25.30
2019-02-05T21:07:19.759Z,25.62
2019-02-05T21:09:49.101Z,20.75
2019-02-05T21:12:18.221Z,20.60
2019-02-05T21:14:48.156Z,22.80
2019-02-05T21:17:17.165Z,22.52
2019-02-05T21:19:46.153Z,22.00
2019-02-05T21:22:15.068Z,17.62
2019-02-05T21:24:45.598Z,25.30
2019-02-05T21:27:15.234Z,24.63
2019-02-05T21:29:44.625Z,22.15
2019-02-05T21:32:14.392Z,23.22
2019-02-05T21:34:52.826Z,21.20
2019-02-05T21:37:23.312Z,17.23
2019-02-05T21:40:02.016Z,23.77
2019-02-05T21:42:23.686Z,24.43
2019-02-05T21:44:54.277Z,25.30
2019-02-05T21:47:26.673Z,28.95
2019-02-05T21:49:56.063Z,21.12
2019-02-05T21:52:25.293Z,21.30
2019-02-05T21:54:54.850Z,24.00
2019-02-05T21:57:26.808Z,23.83
2019-02-05T21:59:56.158Z,26.87
2019-02-05T22:02:25.564Z,25.35
2019-02-05T22:04:54.598Z,21.12
2019-02-05T22:07:23.618Z,25.72
2019-02-05T22:09:52.801Z,19.90
2019-02-05T22:12:28.127Z,22.62
2019-02-05T22:15:12.674Z,23.45
2019-02-05T22:17:41.902Z,23.83
2019-02-05T22:20:13.347Z,20.85
2019-02-05T22:22:42.391Z,26.87
2019-02-05T22:25:15.910Z,20.75
2019-02-05T22:27:45.042Z,18.05
2019-02-05T22:30:30.189Z,23.30
2019-02-05T22:32:59.137Z,20.23
2019-02-05T22:35:28.217Z,20.62
2019-02-05T22:37:58.598Z,21.30
2019-02-05T22:40:28.904Z,21.95
2019-02-05T22:42:58.106Z,25.92
2019-02-05T22:45:31.396Z,23.50
2019-02-05T22:48:00.437Z,19.02
2019-02-05T22:50:31.262Z,24.92
2019-02-05T22:53:01.136Z,17.15
2019-02-05T22:55:30.236Z,21.95
2019-02-05T22:57:59.214Z,20.60
2019-02-05T23:00:53.610Z,25.10
2019-02-05T23:03:35.751Z,23.20
2019-02-05T23:06:34.191Z,19.87
2019-02-05T23:09:17.356Z,26.80
2019-02-05T23:12:29.915Z,16.80
2019-02-05T23:15:03.744Z,18.95
2019-02-05T23:17:35.981Z,19.73
2019-02-05T23:20:07.049Z,24.55
2019-02-05T23:22:36.683Z,21.02
2019-02-05T23:25:08.794Z,25.72
2019-02-05T23:27:50.443Z,19.37
2019-02-05T23:30:29.462Z,20.90
2019-02-05T23:32:59.231Z,23.60
2019-02-05T23:35:38.072Z,21.37
2019-02-05T23:38:07.305Z,21.85
2019-02-05T23:40:36.515Z,26.42
2019-02-05T23:43:06.924Z,16.65
2019-02-05T23:45:37.293Z,21.82
2019-02-05T23:48:11.344Z,26.75
2019-02-05T23:50:43.359Z,18.40
2019-02-05T23:53:31.575Z,21.80
2019-02-05T23:56:00.744Z,22.35
2019-02-05T23:58:32.781Z,25.27
